createdAt,value
2022-12-06T00:02:13.934Z,98568.63
2022-12-06T00:04:40.981Z,98558.75
2022-12-06T00:07:08.218Z,98560.59
2022-12-06T00:09:35.174Z,98540.34
2022-12-06T00:12:02.104Z,98553.56
2022-12-06T00:14:29.129Z,98542.84
2022-12-06T00:16:56.170Z,98543.84
2022-12-06T00:19:24.067Z,98550.72
2022-12-06T00:21:51.659Z,98546.72
2022-12-06T00:24:21.848Z,98544.91
2022-12-06T00:26:50.530Z,98524.75
2022-12-06T00:29:20.877Z,98537.84
2022-12-06T00:31:48.482Z,98521.94
2022-12-06T00:34:15.871Z,98541.22
2022-12-06T00:36:44.052Z,98532.19
2022-12-06T00:39:14.415Z,98527.50
2022-12-06T00:41:42.229Z,98537.03
2022-12-06T00:44:10.528Z,98528.84
2022-12-06T00:46:38.274Z,98535.88
2022-12-06T00:49:07.990Z,98529.69
2022-12-06T00:51:36.675Z,98525.19
2022-12-06T00:54:04.010Z,98523.50
2022-12-06T00:56:31.909Z,98529.50
2022-12-06T00:58:58.932Z,98521.66
2022-12-06T01:01:30.422Z,98522.50
2022-12-06T01:04:00.114Z,98513.94
2022-12-06T01:06:30.239Z,98518.44
2022-12-06T01:09:00.866Z,98519.25
2022-12-06T01:11:29.353Z,98502.31
2022-12-06T01:13:56.925Z,98499.16
2022-12-06T01:16:27.220Z,98497.97
2022-12-06T01:18:57.022Z,98493.94
2022-12-06T01:21:25.223Z,98486.06
2022-12-06T01:23:54.599Z,98481.78
2022-12-06T01:26:33.446Z,98477.25
2022-12-06T01:29:01.614Z,98477.25
2022-12-06T01:31:37.170Z,98462.88
2022-12-06T01:34:06.353Z,98471.91
2022-12-06T01:36:33.409Z,98466.72
2022-12-06T01:39:01.993Z,98459.84
2022-12-06T01:41:29.143Z,98441.09
2022-12-06T01:43:57.089Z,98456.00
2022-12-06T01:46:33.130Z,98443.78
2022-12-06T01:49:18.571Z,98436.78
2022-12-06T01:51:54.801Z,98433.56
2022-12-06T01:54:23.802Z,98424.75
2022-12-06T01:56:54.187Z,98423.72
2022-12-06T01:59:22.172Z,98416.19
2022-12-06T02:01:49.985Z,98407.31
2022-12-06T02:04:19.242Z,98411.00
2022-12-06T02:07:03.438Z,98401.09
2022-12-06T02:09:47.763Z,98396.59
2022-12-06T02:12:39.057Z,98392.09
2022-12-06T02:15:28.858Z,98368.16
2022-12-06T02:18:36.624Z,98377.38
2022-12-06T02:21:58.113Z,98382.88
2022-12-06T02:25:08.274Z,98387.25
2022-12-06T02:27:52.488Z,98366.03
2022-12-06T02:30:29.917Z,98366.69
2022-12-06T02:33:06.040Z,98366.84
2022-12-06T02:35:42.092Z,98366.34
2022-12-06T02:38:17.839Z,98365.50
2022-12-06T02:40:55.857Z,98365.84
2022-12-06T02:43:27.812Z,98363.69
2022-12-06T02:45:59.621Z,98357.34
2022-12-06T02:48:27.198Z,98357.69
2022-12-06T02:51:03.795Z,98357.53
2022-12-06T02:53:34.748Z,98340.16
2022-12-06T02:56:02.600Z,98330.25
2022-12-06T02:58:35.909Z,98334.47
2022-12-06T03:01:10.425Z,98319.06
2022-12-06T03:03:55.631Z,98327.09
2022-12-06T03:06:34.831Z,98321.75
2022-12-06T03:09:24.950Z,98317.09
2022-12-06T03:12:03.734Z,98318.09
2022-12-06T03:14:39.594Z,98317.59
2022-12-06T03:17:22.208Z,98311.25
2022-12-06T03:19:56.274Z,98308.72
2022-12-06T03:22:29.894Z,98307.06
2022-12-06T03:24:59.015Z,98295.84
2022-12-06T03:27:27.796Z,98291.84
2022-12-06T03:29:58.445Z,98297.38
2022-12-06T03:32:31.399Z,98292.19
2022-12-06T03:35:02.355Z,98293.00
2022-12-06T03:37:33.169Z,98281.31
2022-12-06T03:40:10.456Z,98290.00
2022-12-06T03:42:38.116Z,98278.97
2022-12-06T03:45:06.139Z,98278.16
2022-12-06T03:47:45.037Z,98280.63
2022-12-06T03:50:19.668Z,98281.13
2022-12-06T03:52:47.629Z,98288.84
2022-12-06T03:55:14.859Z,98290.69
2022-12-06T03:57:41.928Z,98287.66
2022-12-06T04:00:09.875Z,98289.00
2022-12-06T04:02:36.954Z,98299.38
2022-12-06T04:05:04.233Z,98299.53
2022-12-06T04:07:32.119Z,98287.66
2022-12-06T04:10:05.071Z,98290.53
2022-12-06T04:12:52.173Z,98296.38
2022-12-06T04:15:20.975Z,98296.88
2022-12-06T04:18:06.720Z,98301.38
2022-12-06T04:20:53.920Z,98294.88
2022-12-06T04:23:21.628Z,98296.34
2022-12-06T04:25:48.858Z,98286.16
2022-12-06T04:28:34.256Z,98301.72
2022-12-06T04:31:22.249Z,98298.53
2022-12-06T04:34:08.919Z,98297.34
2022-12-06T04:36:55.403Z,98290.69
2022-12-06T04:39:22.457Z,98277.50
2022-12-06T04:42:08.379Z,98287.69
2022-12-06T04:44:35.479Z,98275.31
2022-12-06T04:47:03.081Z,98282.97
2022-12-06T04:49:30.137Z,98266.59
2022-12-06T04:51:57.084Z,98266.25
2022-12-06T04:54:24.854Z,98271.28
2022-12-06T04:56:52.896Z,98264.63
2022-12-06T04:59:20.408Z,98259.25
2022-12-06T05:01:47.420Z,98262.09
2022-12-06T05:04:14.852Z,98260.09
2022-12-06T05:06:41.784Z,98263.09
2022-12-06T05:09:08.931Z,98268.97
2022-12-06T05:11:36.297Z,98266.09
2022-12-06T05:14:03.739Z,98276.47
2022-12-06T05:16:30.779Z,98275.28
2022-12-06T05:18:57.878Z,98273.44
2022-12-06T05:21:26.307Z,98264.75
2022-12-06T05:23:55.587Z,98260.59
2022-12-06T05:26:27.981Z,98262.06
2022-12-06T05:28:56.201Z,98266.25
2022-12-06T05:31:24.282Z,98260.91
2022-12-06T05:33:52.684Z,98257.88
2022-12-06T05:36:24.958Z,98264.91
2022-12-06T05:38:53.031Z,98267.94
2022-12-06T05:41:22.213Z,98257.25
2022-12-06T05:43:49.574Z,98263.25
2022-12-06T05:46:16.596Z,98254.25
2022-12-06T05:48:43.689Z,98255.25
2022-12-06T05:51:10.820Z,98254.91
2022-12-06T05:53:37.854Z,98256.41
2022-12-06T05:56:10.546Z,98246.38
2022-12-06T05:58:37.559Z,98243.38
2022-12-06T06:01:06.357Z,98247.53
2022-12-06T06:03:33.494Z,98252.41
2022-12-06T06:06:02.011Z,98239.19
2022-12-06T06:08:30.414Z,98242.69
2022-12-06T06:10:59.486Z,98233.19
2022-12-06T06:13:26.736Z,98247.38
2022-12-06T06:15:53.751Z,98243.34
2022-12-06T06:18:20.972Z,98239.69
2022-12-06T06:20:57.314Z,98231.66
2022-12-06T06:23:25.053Z,98239.19
2022-12-06T06:25:52.102Z,98231.84
2022-12-06T06:28:19.158Z,98229.16
2022-12-06T06:30:46.717Z,98230.16
2022-12-06T06:33:14.501Z,98226.81
2022-12-06T06:35:42.165Z,98224.63
2022-12-06T06:38:09.211Z,98230.16
2022-12-06T06:40:36.240Z,98219.47
2022-12-06T06:43:18.726Z,98221.13
2022-12-06T06:46:03.031Z,98217.59
2022-12-06T06:48:32.524Z,98224.13
2022-12-06T06:51:07.331Z,98213.91
2022-12-06T06:53:34.785Z,98222.44
2022-12-06T06:56:02.876Z,98217.44
2022-12-06T06:58:29.926Z,98219.63
2022-12-06T07:01:01.982Z,98214.59
2022-12-06T07:03:29.732Z,98212.41
2022-12-06T07:06:01.596Z,98211.44
2022-12-06T07:08:30.076Z,98207.44
2022-12-06T07:10:57.934Z,98202.06
2022-12-06T07:13:26.815Z,98197.56
2022-12-06T07:15:53.998Z,98189.38
2022-12-06T07:18:21.335Z,98186.84
2022-12-06T07:20:49.508Z,98169.34
2022-12-06T07:23:16.658Z,98185.69
2022-12-06T07:25:43.603Z,98184.50
2022-12-06T07:28:10.564Z,98194.22
2022-12-06T07:30:37.588Z,98187.69
2022-12-06T07:33:04.598Z,98188.03
2022-12-06T07:35:55.388Z,98192.03
2022-12-06T07:38:19.265Z,98159.97
2022-12-06T07:43:52.117Z,98172.00
2022-12-06T07:46:19.111Z,98172.13
2022-12-06T07:48:46.000Z,98184.69
2022-12-06T07:51:12.973Z,98178.97
2022-12-06T07:53:39.991Z,98172.63
2022-12-06T07:56:08.297Z,98166.09
2022-12-06T07:58:35.276Z,98163.91
2022-12-06T08:01:04.220Z,98165.59
2022-12-06T08:03:31.439Z,98164.25
2022-12-06T08:05:58.497Z,98167.41
2022-12-06T08:08:28.842Z,98155.06
2022-12-06T08:11:00.186Z,98156.50
2022-12-06T08:13:27.758Z,98154.19
2022-12-06T08:15:54.892Z,98162.72
2022-12-06T08:18:22.338Z,98158.25
2022-12-06T08:20:49.324Z,98155.22
2022-12-06T08:23:16.341Z,98161.72
2022-12-06T08:25:43.242Z,98159.53
2022-12-06T08:28:10.230Z,98159.19
2022-12-06T08:30:40.845Z,98155.16
2022-12-06T08:33:07.784Z,98160.19
2022-12-06T08:35:37.312Z,98174.88
2022-12-06T08:38:04.309Z,98174.69
2022-12-06T08:40:31.287Z,98169.84
2022-12-06T08:42:58.231Z,98174.00
2022-12-06T08:45:25.120Z,98178.19
2022-12-06T08:47:52.093Z,98170.31
2022-12-06T08:50:19.302Z,98169.28
2022-12-06T08:52:46.223Z,98168.94
2022-12-06T08:55:13.164Z,98164.06
2022-12-06T08:57:40.075Z,98156.31
2022-12-06T09:00:08.287Z,98159.31
2022-12-06T09:02:35.376Z,98161.47
2022-12-06T09:05:02.468Z,98148.38
2022-12-06T09:07:29.367Z,98153.22
2022-12-06T09:09:56.441Z,98143.03
2022-12-06T09:12:24.053Z,98158.22
2022-12-06T09:14:50.959Z,98153.53
2022-12-06T09:17:17.904Z,98146.97
2022-12-06T09:19:44.884Z,98132.56
2022-12-06T09:22:11.786Z,98134.06
2022-12-06T09:24:38.867Z,98130.19
2022-12-06T09:27:05.773Z,98134.34
2022-12-06T09:29:40.183Z,98129.81
2022-12-06T09:32:07.649Z,98123.28
2022-12-06T09:34:34.555Z,98119.25
2022-12-06T09:37:12.183Z,98128.75
2022-12-06T09:39:52.037Z,98111.69
2022-12-06T09:42:21.626Z,98117.69
2022-12-06T09:45:25.333Z,98124.38
2022-12-06T09:48:37.047Z,98107.09
2022-12-06T09:51:31.919Z,98104.69
2022-12-06T09:54:34.051Z,98110.53
2022-12-06T09:57:17.790Z,98095.66
2022-12-06T09:59:56.494Z,98094.81
2022-12-06T10:02:48.702Z,98101.00
2022-12-06T10:05:27.716Z,98103.84
2022-12-06T10:08:10.375Z,98100.34
2022-12-06T10:11:08.132Z,98097.66
2022-12-06T10:14:34.186Z,98094.34
2022-12-06T10:17:09.737Z,98099.22
2022-12-06T10:20:12.245Z,98092.38
2022-12-06T10:23:12.682Z,98087.56
2022-12-06T10:26:01.394Z,98096.50
2022-12-06T10:28:34.484Z,98094.16
2022-12-06T10:31:12.974Z,98084.03
2022-12-06T10:33:51.845Z,98087.72
2022-12-06T10:36:42.316Z,98095.19
2022-12-06T10:39:20.748Z,98095.50
2022-12-06T10:42:13.994Z,98094.34
2022-12-06T10:44:57.626Z,98098.25
2022-12-06T10:47:34.707Z,98087.44
2022-12-06T10:50:31.042Z,98085.34
2022-12-06T10:53:15.499Z,98082.88
2022-12-06T10:55:59.546Z,98080.94
2022-12-06T10:58:39.288Z,98078.56
2022-12-06T11:01:16.929Z,98077.25
2022-12-06T11:04:00.319Z,98074.78
2022-12-06T11:06:54.661Z,98077.66
2022-12-06T11:09:40.488Z,98072.03
2022-12-06T11:12:25.372Z,98070.34
2022-12-06T11:15:07.547Z,98069.88
2022-12-06T11:17:39.496Z,98073.00
2022-12-06T11:20:15.393Z,98081.34
2022-12-06T11:22:51.558Z,98082.66
2022-12-06T11:25:27.713Z,98082.28
2022-12-06T11:28:13.584Z,98087.72
2022-12-06T11:30:40.526Z,98085.84
2022-12-06T11:33:10.276Z,98085.13
2022-12-06T11:35:37.390Z,98091.47
2022-12-06T11:38:07.463Z,98085.84
2022-12-06T11:40:42.546Z,98084.28
2022-12-06T11:43:18.930Z,98082.66
2022-12-06T11:45:48.299Z,98071.44
2022-12-06T11:48:22.085Z,98063.09
2022-12-06T11:50:52.040Z,98063.59
2022-12-06T11:53:46.236Z,98052.72
2022-12-06T11:56:27.515Z,98069.94
2022-12-06T11:59:08.888Z,98069.06
2022-12-06T12:01:42.578Z,98058.03
2022-12-06T12:04:35.085Z,98061.88
2022-12-06T12:07:10.431Z,98063.44
2022-12-06T12:09:54.105Z,98060.41
2022-12-06T12:12:45.842Z,98052.03
2022-12-06T12:15:19.838Z,98057.22
2022-12-06T12:17:50.379Z,98059.88
2022-12-06T12:20:34.145Z,98053.22
2022-12-06T12:23:05.757Z,98051.19
2022-12-06T12:25:35.353Z,98036.97
2022-12-06T12:28:04.600Z,98053.53
2022-12-06T12:30:37.670Z,98045.31
2022-12-06T12:33:07.624Z,98055.34
2022-12-06T12:35:40.973Z,98043.31
2022-12-06T12:38:10.799Z,98049.63
2022-12-06T12:40:46.831Z,98038.47
2022-12-06T12:43:13.655Z,98052.16
2022-12-06T12:46:08.023Z,98049.63
2022-12-06T12:48:35.989Z,98041.97
2022-12-06T12:51:20.392Z,98032.63
2022-12-06T12:53:49.602Z,98029.75
2022-12-06T12:56:19.400Z,98019.91
2022-12-06T12:58:56.211Z,98031.44
2022-12-06T13:01:30.969Z,98038.28
2022-12-06T13:04:06.052Z,98033.94
2022-12-06T13:07:10.308Z,98032.28
2022-12-06T13:10:01.360Z,98031.09
2022-12-06T13:12:54.267Z,98022.56
2022-12-06T13:15:29.357Z,98028.19
2022-12-06T13:18:01.179Z,98025.53
2022-12-06T13:20:34.732Z,98027.72
2022-12-06T13:23:06.482Z,98026.72
2022-12-06T13:25:33.606Z,98029.41
2022-12-06T13:28:05.764Z,98020.69
2022-12-06T13:30:36.721Z,98018.72
2022-12-06T13:33:26.011Z,98027.59
2022-12-06T13:36:18.920Z,98019.25
2022-12-06T13:38:45.999Z,98013.38
2022-12-06T13:41:15.077Z,98017.91
2022-12-06T13:43:49.910Z,98004.38
2022-12-06T13:46:22.178Z,98004.88
2022-12-06T13:48:52.593Z,98014.88
2022-12-06T13:51:31.839Z,98013.03
2022-12-06T13:54:18.958Z,98017.53
2022-12-06T13:56:46.175Z,98018.03
2022-12-06T13:59:13.212Z,98012.16
2022-12-06T14:01:49.817Z,98016.84
2022-12-06T14:09:40.055Z,98015.91
2022-12-06T14:12:28.822Z,98009.75
2022-12-06T14:15:07.017Z,98008.94
2022-12-06T14:20:32.117Z,98010.47
2022-12-06T14:22:59.292Z,98012.97
2022-12-06T14:25:29.918Z,98010.66
2022-12-06T14:28:06.714Z,98012.00
2022-12-06T14:30:34.478Z,98005.53
2022-12-06T14:33:01.915Z,97995.00
2022-12-06T14:35:37.160Z,97990.16
2022-12-06T14:38:26.794Z,97983.31
2022-12-06T14:41:12.672Z,97993.66
2022-12-06T14:43:42.307Z,97997.00
2022-12-06T14:46:15.199Z,97994.97
2022-12-06T14:49:02.768Z,97999.97
2022-12-06T14:51:38.883Z,98012.34
2022-12-06T14:54:35.371Z,98009.00
2022-12-06T14:57:04.002Z,98003.81
2022-12-06T15:00:13.552Z,98004.00
2022-12-06T15:02:29.103Z,98008.34
2022-12-06T15:04:56.347Z,98001.00
2022-12-06T15:07:41.808Z,98012.53
2022-12-06T15:10:32.898Z,98006.84
2022-12-06T15:13:15.809Z,98015.06
2022-12-06T15:15:46.321Z,98017.44
2022-12-06T15:18:26.299Z,98010.94
2022-12-06T15:20:54.398Z,98021.91
2022-12-06T15:23:36.592Z,98024.94
2022-12-06T15:26:05.364Z,98022.09
2022-12-06T15:28:32.609Z,98019.25
2022-12-06T15:30:59.809Z,98018.94
2022-12-06T15:33:27.577Z,98024.09
2022-12-06T15:35:54.772Z,98027.25
2022-12-06T15:38:22.041Z,98024.59
2022-12-06T15:40:51.087Z,98025.78
2022-12-06T15:43:34.725Z,98021.78
2022-12-06T15:46:03.764Z,98020.44
2022-12-06T15:48:34.917Z,98027.75
2022-12-06T15:51:01.962Z,98017.09
2022-12-06T15:53:29.587Z,98007.94
2022-12-06T15:55:57.306Z,98017.28
2022-12-06T15:58:24.280Z,98019.94
2022-12-06T16:00:51.304Z,98020.44
2022-12-06T16:03:18.612Z,98029.44
2022-12-06T16:05:45.844Z,98027.59
2022-12-06T16:08:12.949Z,98027.75
2022-12-06T16:11:10.398Z,98020.09
2022-12-06T16:13:26.911Z,98029.09
2022-12-06T16:15:53.992Z,98025.78
2022-12-06T16:18:21.041Z,98022.63
2022-12-06T16:20:48.186Z,98024.78
2022-12-06T16:24:11.361Z,98026.78
2022-12-06T16:26:28.706Z,98015.38
2022-12-06T16:28:56.664Z,98022.75
2022-12-06T16:31:23.803Z,98025.56
2022-12-06T16:33:50.840Z,98029.72
2022-12-06T16:36:28.867Z,98031.72
2022-12-06T16:38:59.130Z,98030.06
2022-12-06T16:41:28.902Z,98028.91
2022-12-06T16:43:57.081Z,98031.88
2022-12-06T16:46:35.880Z,98033.72
2022-12-06T16:49:37.227Z,98039.03
2022-12-06T16:51:53.253Z,98034.41
2022-12-06T16:54:20.637Z,98033.88
2022-12-06T16:56:47.618Z,98015.47
2022-12-06T16:59:16.136Z,98025.34
2022-12-06T17:01:55.280Z,98033.66
2022-12-06T17:04:22.786Z,98033.69
2022-12-06T17:06:50.069Z,98023.72
2022-12-06T17:09:17.332Z,98030.06
2022-12-06T17:12:03.205Z,98018.19
2022-12-06T17:14:30.533Z,98033.69
2022-12-06T17:17:00.489Z,98033.00
2022-12-06T17:19:28.537Z,98030.81
2022-12-06T17:21:56.179Z,98027.13
2022-12-06T17:24:25.703Z,98029.97
2022-12-06T17:26:54.393Z,98018.16
2022-12-06T17:29:23.827Z,98037.28
2022-12-06T17:31:52.162Z,98026.63
2022-12-06T17:34:20.244Z,98028.47
2022-12-06T17:36:48.143Z,98031.28
2022-12-06T17:39:19.223Z,98037.13
2022-12-06T17:42:05.350Z,98028.44
2022-12-06T17:44:32.960Z,98031.59
2022-12-06T17:47:00.335Z,98035.59
2022-12-06T17:49:28.117Z,98034.09
2022-12-06T17:51:55.566Z,98029.63
2022-12-06T17:54:22.472Z,98032.94
2022-12-06T17:56:51.549Z,98034.25
2022-12-06T17:59:21.246Z,98030.28
2022-12-06T18:04:36.811Z,98032.22
2022-12-06T18:07:03.786Z,98027.59
2022-12-06T18:09:30.681Z,98032.63
2022-12-06T18:11:57.709Z,98025.97
2022-12-06T18:14:24.618Z,98027.13
2022-12-06T18:16:51.631Z,97999.25
2022-12-06T18:19:21.138Z,98025.66
2022-12-06T18:21:49.166Z,98029.34
2022-12-06T18:24:22.613Z,98031.66
2022-12-06T18:26:52.079Z,98029.34
2022-12-06T18:29:22.099Z,98041.34
2022-12-06T18:31:49.811Z,98025.00
2022-12-06T18:34:17.453Z,98035.69
2022-12-06T18:36:44.638Z,98027.34
2022-12-06T18:39:15.872Z,98025.00
2022-12-06T18:41:45.980Z,98023.66
2022-12-06T18:44:13.932Z,98026.78
2022-12-06T18:46:42.888Z,98015.28
2022-12-06T18:49:12.367Z,98018.91
2022-12-06T18:51:39.819Z,98007.09
2022-12-06T18:54:08.255Z,98029.28
2022-12-06T18:56:36.092Z,98015.78
2022-12-06T18:59:06.612Z,98013.81
2022-12-06T19:01:37.136Z,98023.53
2022-12-06T19:04:05.913Z,98026.78
2022-12-06T19:06:35.928Z,98010.69
2022-12-06T19:09:22.659Z,98028.69
2022-12-06T19:11:49.826Z,98036.84
2022-12-06T19:14:17.048Z,98033.72
2022-12-06T19:16:48.922Z,98041.88
2022-12-06T19:19:22.756Z,98043.97
2022-12-06T19:21:52.003Z,98047.31
2022-12-06T19:24:22.377Z,98052.50
2022-12-06T19:26:51.749Z,98049.78
2022-12-06T19:29:19.017Z,98050.16
2022-12-06T19:31:46.281Z,98047.28
2022-12-06T19:34:19.431Z,98044.25
2022-12-06T19:36:48.332Z,98029.28
2022-12-06T19:39:15.266Z,98037.47
2022-12-06T19:42:01.261Z,98043.50
2022-12-06T19:44:29.039Z,98039.00
2022-12-06T19:46:56.888Z,98036.34
2022-12-06T19:49:25.875Z,98036.25
2022-12-06T19:51:53.030Z,98029.94
2022-12-06T19:54:22.965Z,98038.91
2022-12-06T19:56:53.337Z,98042.59
2022-12-06T19:59:25.848Z,98026.63
2022-12-06T20:01:54.597Z,98019.41
2022-12-06T20:04:24.116Z,98034.25
2022-12-06T20:06:52.492Z,98027.56
2022-12-06T20:09:22.254Z,98018.50
2022-12-06T20:12:02.301Z,98034.00
2022-12-06T20:14:46.476Z,98036.69
2022-12-06T20:17:19.670Z,98035.69
2022-12-06T20:19:46.868Z,98000.38
2022-12-06T20:22:14.900Z,98039.16
2022-12-06T20:24:42.331Z,98041.97
2022-12-06T20:27:10.027Z,98039.75
2022-12-06T20:29:36.922Z,98026.59
2022-12-06T20:32:04.828Z,98035.28
2022-12-06T20:34:34.970Z,98032.47
2022-12-06T20:37:04.883Z,98029.44
2022-12-06T20:39:38.541Z,98036.41
2022-12-06T20:42:07.245Z,98031.91
2022-12-06T20:44:35.801Z,98028.41
2022-12-06T20:47:03.072Z,98025.09
2022-12-06T20:49:30.208Z,98027.75
2022-12-06T20:51:58.361Z,98035.88
2022-12-06T20:54:25.483Z,97981.28
2022-12-06T20:56:53.678Z,98029.72
2022-12-06T20:59:21.538Z,98013.38
2022-12-06T21:01:48.799Z,98021.06
2022-12-06T21:04:16.796Z,98017.09
2022-12-06T21:06:43.825Z,98022.44
2022-12-06T21:09:11.027Z,98028.59
2022-12-06T21:11:38.142Z,98024.03
2022-12-06T21:14:06.151Z,98034.06
2022-12-06T21:16:35.278Z,98040.22
2022-12-06T21:19:05.202Z,98032.25
2022-12-06T21:21:38.082Z,98030.56
2022-12-06T21:24:07.654Z,98025.94
2022-12-06T21:26:35.302Z,98029.44
2022-12-06T21:29:02.675Z,98025.75
2022-12-06T21:31:31.965Z,98035.41
2022-12-06T21:33:59.444Z,98037.78
2022-12-06T21:36:26.579Z,98036.63
2022-12-06T21:38:54.396Z,98039.16
2022-12-06T21:41:22.091Z,98032.97
2022-12-06T21:43:49.332Z,98026.81
2022-12-06T21:46:20.189Z,98032.81
2022-12-06T21:48:51.674Z,98028.66
2022-12-06T21:51:19.505Z,98038.59
2022-12-06T21:53:46.433Z,98022.09
2022-12-06T21:56:19.349Z,98025.47
2022-12-06T21:58:47.541Z,98034.44
2022-12-06T22:01:18.053Z,98020.44
2022-12-06T22:03:48.703Z,98024.63
2022-12-06T22:06:16.120Z,98027.75
2022-12-06T22:08:44.637Z,98017.44
2022-12-06T22:11:14.554Z,98021.06
2022-12-06T22:13:42.835Z,98016.59
2022-12-06T22:16:11.633Z,98019.41
2022-12-06T22:18:45.510Z,98024.25
2022-12-06T22:21:22.364Z,98022.44
2022-12-06T22:23:49.269Z,98018.41
2022-12-06T22:26:18.806Z,98008.22
2022-12-06T22:28:46.726Z,98003.75
2022-12-06T22:31:25.421Z,98015.09
2022-12-06T22:33:53.545Z,98013.75
2022-12-06T22:36:21.765Z,98017.09
2022-12-06T22:38:50.695Z,97996.38
2022-12-06T22:41:18.874Z,98018.09
2022-12-06T22:43:46.309Z,97994.69
2022-12-06T22:46:15.663Z,98008.88
2022-12-06T22:48:43.658Z,98004.41
2022-12-06T22:51:23.555Z,98003.44
2022-12-06T22:53:56.348Z,98011.25
2022-12-06T22:56:24.281Z,98007.06
2022-12-06T22:58:59.417Z,97991.94
2022-12-06T23:01:29.597Z,98012.09
2022-12-06T23:03:58.885Z,98005.94
2022-12-06T23:06:26.563Z,97994.13
2022-12-06T23:08:54.475Z,98003.94
2022-12-06T23:11:30.648Z,98000.16
2022-12-06T23:13:58.378Z,97994.00
2022-12-06T23:16:27.830Z,97995.50
2022-12-06T23:18:55.453Z,97995.81
2022-12-06T23:21:25.573Z,97993.00
2022-12-06T23:23:58.486Z,97990.84
2022-12-06T23:26:34.380Z,97993.19
2022-12-06T23:29:01.694Z,97982.56
2022-12-06T23:31:31.369Z,97979.56
2022-12-06T23:34:03.979Z,97978.44
2022-12-06T23:36:33.153Z,97981.75
2022-12-06T23:39:00.384Z,97972.63
2022-12-06T23:41:29.503Z,97984.97
2022-12-06T23:43:57.739Z,97978.78
2022-12-06T23:46:27.770Z,97969.81
2022-12-06T23:48:56.103Z,97979.63
2022-12-06T23:51:31.253Z,97972.31
2022-12-06T23:53:59.643Z,97977.63
2022-12-06T23:56:30.198Z,97969.00
2022-12-06T23:58:57.781Z,97972.31
